Time;durP1;ratioP1;P1;durP2;ratioP2;P2;SDS_P1;SDS_P2;PMS_P1;PMS_P2;Temp;Humidity;BMP_temperature;BMP_pressure;BME280_temperature;BME280_humidity;BME280_pressure;Samples;Min_cycle;Max_cycle;Signal;HPM_P1;HPM_P2
2023/06/05 00:00:29;;;;;;;;;;;;;;;19.98;58.16;100034.41;5095377;28;19920;-77
2023/06/05 00:02:54;;;;;;;;;;;;;;;19.92;58.38;100035.31;5095457;28;20304;-78
2023/06/05 00:05:20;;;;;;;;;;;;;;;19.93;58.19;100039.63;5095106;28;19956;-77
2023/06/05 00:07:45;;;;;;;;;;;;;;;19.93;58.05;100045.78;5095194;28;20007;-77
2023/06/05 00:10:11;;;;;;;;;;;;;;;19.94;58.26;100054.66;5095143;28;19920;-76
2023/06/05 00:12:36;;;;;;;;;;;;;;;19.89;57.87;100058.00;5094999;28;19917;-76
2023/06/05 00:15:02;;;;;;;;;;;;;;;19.88;57.61;100060.91;5095058;28;19912;-76
2023/06/05 00:17:27;;;;;;;;;;;;;;;19.84;57.91;100065.09;5095002;28;19912;-78
2023/06/05 00:19:53;;;;;;;;;;;;;;;19.79;58.27;100054.25;5095247;28;20004;-75
2023/06/05 00:22:18;;;;;;;;;;;;;;;19.71;58.36;100058.03;5095304;28;19920;-77
2023/06/05 00:24:44;;;;;;;;;;;;;;;19.66;58.66;100052.53;5094822;28;19912;-78
2023/06/05 00:27:09;;;;;;;;;;;;;;;19.66;58.51;100058.72;5094664;28;19912;-77
2023/06/05 00:29:34;;;;;;;;;;;;;;;19.67;58.70;100052.31;5093400;28;20389;-78
2023/06/05 00:32:00;;;;;;;;;;;;;;;19.73;58.50;100049.78;5093302;28;19923;-77
2023/06/05 00:34:25;;;;;;;;;;;;;;;19.66;58.87;100039.97;5094694;28;19991;-77
2023/06/05 00:36:50;;;;;;;;;;;;;;;19.64;58.50;100044.72;5094709;28;19912;-77
2023/06/05 00:39:18;;;;;;;;;;;;;;;19.66;58.36;100039.16;5094506;28;19919;-76
2023/06/05 00:41:44;;;;;;;;;;;;;;;19.66;58.36;100039.97;5094506;28;19942;-77
2023/06/05 00:44:10;;;;;;;;;;;;;;;19.64;58.22;100036.69;5094687;28;19944;-75
2023/06/05 00:46:35;;;;;;;;;;;;;;;19.59;58.45;100033.88;5094446;28;19912;-77
2023/06/05 00:49:00;;;;;;;;;;;;;;;19.56;58.65;100037.00;5094378;28;20401;-77
2023/06/05 00:51:26;;;;;;;;;;;;;;;19.55;58.28;100035.38;5094425;28;20433;-77
2023/06/05 00:53:51;;;;;;;;;;;;;;;19.60;58.31;100040.88;5094656;28;19912;-77
2023/06/05 00:56:20;;;;;;;;;;;;;;;19.58;58.25;100036.78;5094725;28;19923;-78
2023/06/05 00:58:46;;;;;;;;;;;;;;;19.58;57.97;100037.59;5094515;28;20416;-77
2023/06/05 01:01:11;;;;;;;;;;;;;;;19.59;58.04;100041.09;5094257;28;19913;-76
2023/06/05 01:03:36;;;;;;;;;;;;;;;19.58;57.88;100034.91;5094496;28;20301;-75
2023/06/05 01:06:04;;;;;;;;;;;;;;;19.59;56.64;100041.91;5094222;28;20389;-78
2023/06/05 01:08:41;;;;;;;;;;;;;;;19.56;55.50;100034.31;5094308;28;19995;-76
2023/06/05 01:11:25;;;;;;;;;;;;;;;19.51;54.69;100036.00;5094049;28;19947;-76
2023/06/05 01:13:57;;;;;;;;;;;;;;;19.46;55.31;100039.34;5092677;28;19916;-76
2023/06/05 01:16:30;;;;;;;;;;;;;;;19.47;55.12;100041.00;5094270;28;20011;-77
2023/06/05 01:19:01;;;;;;;;;;;;;;;19.46;54.09;100038.53;5094711;28;19991;-76
2023/06/05 01:21:27;;;;;;;;;;;;;;;19.45;55.06;100035.03;5094340;28;19919;-76
2023/06/05 01:23:53;;;;;;;;;;;;;;;19.40;54.60;100034.91;5095168;28;20313;-77
2023/06/05 01:26:21;;;;;;;;;;;;;;;19.34;54.31;100028.56;5094198;28;19912;-77
2023/06/05 01:28:48;;;;;;;;;;;;;;;19.27;54.68;100035.84;5093851;28;19942;-76
2023/06/05 01:31:16;;;;;;;;;;;;;;;19.24;54.95;100027.44;5093708;28;19912;-76
2023/06/05 01:33:50;;;;;;;;;;;;;;;19.21;54.84;100033.22;5093791;28;19920;-76
2023/06/05 01:36:15;;;;;;;;;;;;;;;19.12;54.27;100045.25;5093695;28;19912;-76
2023/06/05 01:38:41;;;;;;;;;;;;;;;19.13;55.18;100045.03;5092763;28;19919;-78
2023/06/05 01:41:07;;;;;;;;;;;;;;;19.15;54.96;100042.16;5093768;28;19954;-77
2023/06/05 01:43:33;;;;;;;;;;;;;;;19.14;54.17;100040.50;5092134;28;19916;-78
2023/06/05 01:45:59;;;;;;;;;;;;;;;19.15;54.57;100034.94;5093989;28;19919;-76
2023/06/05 01:48:27;;;;;;;;;;;;;;;19.14;54.48;100045.84;5092524;28;19912;-76
2023/06/05 01:50:59;;;;;;;;;;;;;;;19.14;54.55;100049.34;5092675;28;19982;-76
2023/06/05 01:53:25;;;;;;;;;;;;;;;19.17;54.79;100048.91;5093024;28;19955;-77
2023/06/05 01:55:52;;;;;;;;;;;;;;;19.19;54.93;100046.84;5093342;28;19912;-77
2023/06/05 01:58:18;;;;;;;;;;;;;;;19.22;54.31;100046.38;5093058;28;19923;-77
2023/06/05 02:00:45;;;;;;;;;;;;;;;19.21;53.07;100039.41;5091799;28;19919;-77
2023/06/05 02:03:10;;;;;;;;;;;;;;;19.21;54.20;100041.25;5092772;28;19919;-77
2023/06/05 02:05:35;;;;;;;;;;;;;;;19.20;54.06;100024.38;5092702;28;19912;-77
2023/06/05 02:08:05;;;;;;;;;;;;;;;19.18;53.81;100028.31;5093422;28;20393;-77
2023/06/05 02:10:31;;;;;;;;;;;;;;;19.13;53.06;100026.31;5093139;28;19948;-77
2023/06/05 02:12:56;;;;;;;;;;;;;;;19.12;53.29;100030.03;5091657;28;19943;-77
2023/06/05 02:15:22;;;;;;;;;;;;;;;19.16;53.87;100046.47;5092920;28;20380;-77
2023/06/05 02:17:52;;;;;;;;;;;;;;;19.15;54.10;100034.13;5092795;28;19912;-77
2023/06/05 02:20:18;;;;;;;;;;;;;;;19.15;53.99;100031.44;5092750;28;20380;-77
2023/06/05 02:22:49;;;;;;;;;;;;;;;19.15;53.68;100034.13;5092436;28;19925;-77
2023/06/05 02:25:15;;;;;;;;;;;;;;;19.18;54.08;100037.16;5093100;28;20003;-77
2023/06/05 02:27:41;;;;;;;;;;;;;;;19.13;53.70;100041.53;5092378;28;20016;-77
2023/06/05 02:30:06;;;;;;;;;;;;;;;19.09;53.28;100041.16;5092421;28;19912;-76
2023/06/05 02:32:32;;;;;;;;;;;;;;;19.11;53.84;100046.31;5092629;28;19916;-77
2023/06/05 02:34:57;;;;;;;;;;;;;;;19.08;53.87;100047.56;5092594;28;19912;-77
2023/06/05 02:37:24;;;;;;;;;;;;;;;19.12;53.71;100047.94;5092586;28;19912;-77
2023/06/05 02:39:49;;;;;;;;;;;;;;;19.12;53.38;100045.25;5092445;28;20389;-77
2023/06/05 02:42:14;;;;;;;;;;;;;;;19.10;53.75;100050.84;5092418;28;19999;-77
2023/06/05 02:44:40;;;;;;;;;;;;;;;19.11;53.23;100054.34;5092867;28;19919;-77
2023/06/05 02:47:05;;;;;;;;;;;;;;;19.07;53.22;100053.97;5092702;28;19908;-76
2023/06/05 02:49:32;;;;;;;;;;;;;;;19.05;53.20;100046.16;5092084;28;19995;-77
2023/06/05 02:51:57;;;;;;;;;;;;;;;19.04;52.82;100046.38;5092088;28;19926;-77
2023/06/05 02:54:23;;;;;;;;;;;;;;;19.06;52.67;100055.00;5091908;28;19912;-78
2023/06/05 02:56:49;;;;;;;;;;;;;;;19.03;52.71;100045.56;5092211;28;20285;-77
2023/06/05 02:59:15;;;;;;;;;;;;;;;19.03;52.63;100044.72;5092227;28;20006;-78
2023/06/05 03:01:43;;;;;;;;;;;;;;;19.04;53.51;100046.38;5091458;28;19951;-77
2023/06/05 03:04:09;;;;;;;;;;;;;;;19.05;52.93;100046.16;5091806;28;19959;-77
2023/06/05 03:06:35;;;;;;;;;;;;;;;19.08;52.81;100054.78;5092099;28;19923;-77
2023/06/05 03:09:00;;;;;;;;;;;;;;;19.08;53.04;100060.94;5091961;28;19919;-77
2023/06/05 03:11:26;;;;;;;;;;;;;;;19.08;53.06;100060.13;5092021;28;20320;-77
2023/06/05 03:13:51;;;;;;;;;;;;;;;19.10;53.44;100058.88;5091000;28;19966;-77
2023/06/05 03:16:17;;;;;;;;;;;;;;;19.11;52.84;100055.16;5092170;28;20002;-76
2023/06/05 03:18:43;;;;;;;;;;;;;;;19.13;53.78;100061.09;5092032;28;20381;-76
2023/06/05 03:21:10;;;;;;;;;;;;;;;19.04;52.97;100065.91;5091357;28;19912;-76
2023/06/05 03:23:35;;;;;;;;;;;;;;;19.05;53.23;100059.53;5093112;28;19912;-76
2023/06/05 03:26:01;;;;;;;;;;;;;;;19.10;52.67;100071.44;5092031;28;19919;-76
2023/06/05 03:28:27;;;;;;;;;;;;;;;19.10;53.42;100064.22;5091717;28;20404;-76
2023/06/05 03:30:52;;;;;;;;;;;;;;;19.13;53.40;100062.97;5092032;28;19962;-76
2023/06/05 03:33:17;;;;;;;;;;;;;;;19.11;52.73;100062.38;5091563;28;20304;-76
2023/06/05 03:35:46;;;;;;;;;;;;;;;19.07;52.70;100063.84;5090541;28;20006;-76
2023/06/05 03:38:11;;;;;;;;;;;;;;;19.03;53.59;100063.47;5091835;28;19939;-76
2023/06/05 03:40:39;;;;;;;;;;;;;;;19.04;53.42;100057.06;5091720;28;19920;-77
2023/06/05 03:43:04;;;;;;;;;;;;;;;19.09;53.05;100053.72;5092162;28;19939;-76
2023/06/05 03:45:29;;;;;;;;;;;;;;;19.10;53.27;100052.69;5092873;28;20384;-76
2023/06/05 03:47:59;;;;;;;;;;;;;;;19.12;52.98;100054.09;5091792;28;19919;-76
2023/06/05 03:50:24;;;;;;;;;;;;;;;19.11;53.45;100054.34;5091844;28;20072;-76
2023/06/05 03:52:53;;;;;;;;;;;;;;;19.15;53.45;100058.19;5091647;28;19916;-76
2023/06/05 03:55:22;;;;;;;;;;;;;;;19.17;53.41;100051.59;5091680;28;19912;-76
2023/06/05 03:57:47;;;;;;;;;;;;;;;19.18;53.87;100055.91;5091871;28;20381;-76
2023/06/05 04:00:14;;;;;;;;;;;;;;;19.10;53.73;100058.88;5091637;28;19919;-76
2023/06/05 04:02:40;;;;;;;;;;;;;;;19.05;54.06;100058.72;5090174;28;19912;-76
2023/06/05 04:05:05;;;;;;;;;;;;;;;19.02;54.23;100061.81;5091311;28;19935;-77
2023/06/05 04:07:31;;;;;;;;;;;;;;;19.03;54.17;100061.59;5091757;28;19912;-76
2023/06/05 04:09:56;;;;;;;;;;;;;;;19.08;54.16;100058.28;5091976;28;19938;-76
2023/06/05 04:12:21;;;;;;;;;;;;;;;19.03;54.36;100060.78;5094794;28;19924;-76
2023/06/05 04:14:47;;;;;;;;;;;;;;;19.04;54.32;100065.09;5102319;28;19912;-77
2023/06/05 04:17:13;;;;;;;;;;;;;;;19.05;54.41;100051.50;5108636;28;19977;-77
2023/06/05 04:19:38;;;;;;;;;;;;;;;19.07;54.60;100055.81;5102225;28;19958;-76
2023/06/05 04:22:04;;;;;;;;;;;;;;;19.06;54.31;100052.31;5095285;28;19982;-76
2023/06/05 04:24:30;;;;;;;;;;;;;;;19.08;54.14;100060.13;5095595;28;19919;-76
2023/06/05 04:26:55;;;;;;;;;;;;;;;19.13;54.24;100065.63;5095318;28;19908;-76
2023/06/05 04:29:20;;;;;;;;;;;;;;;19.12;54.22;100058.66;5094811;28;19927;-76
2023/06/05 04:31:47;;;;;;;;;;;;;;;19.08;54.23;100063.63;5094979;28;19916;-76
2023/06/05 04:34:12;;;;;;;;;;;;;;;19.08;54.22;100058.28;5095119;28;20004;-76
2023/06/05 04:36:38;;;;;;;;;;;;;;;19.08;54.13;100060.94;5093638;28;20400;-76
2023/06/05 04:39:04;;;;;;;;;;;;;;;19.12;54.20;100053.28;5095210;28;20396;-77
2023/06/05 04:41:30;;;;;;;;;;;;;;;19.19;54.34;100064.75;5095493;28;19966;-77
2023/06/05 04:43:57;;;;;;;;;;;;;;;19.25;54.05;100071.91;5094617;28;19912;-76
2023/06/05 04:46:22;;;;;;;;;;;;;;;19.25;54.10;100071.91;5094974;28;19912;-77
2023/06/05 04:48:47;;;;;;;;;;;;;;;19.21;54.16;100060.00;5094909;28;19911;-77
2023/06/05 04:51:13;;;;;;;;;;;;;;;19.21;53.90;100063.50;5093304;28;19912;-77
2023/06/05 04:53:38;;;;;;;;;;;;;;;19.21;53.98;100052.78;5094216;28;19952;-77
2023/06/05 04:56:03;;;;;;;;;;;;;;;19.24;54.06;100060.38;5094452;28;19916;-77
2023/06/05 04:58:29;;;;;;;;;;;;;;;19.25;53.92;100053.16;5094499;28;20452;-76
2023/06/05 05:01:04;;;;;;;;;;;;;;;19.28;53.74;100052.72;5094396;28;19923;-76
2023/06/05 05:03:30;;;;;;;;;;;;;;;19.28;54.09;100048.19;5094348;28;20384;-77
2023/06/05 05:05:55;;;;;;;;;;;;;;;19.32;54.27;100052.06;5094149;28;19919;-77
2023/06/05 05:08:21;;;;;;;;;;;;;;;19.32;54.46;100052.06;5094258;28;20388;-77
2023/06/05 05:10:46;;;;;;;;;;;;;;;19.39;54.28;100051.19;5094134;28;19981;-76
2023/06/05 05:13:12;;;;;;;;;;;;;;;19.38;54.57;100057.59;5093726;28;20343;-76
2023/06/05 05:15:37;;;;;;;;;;;;;;;19.44;54.20;100064.72;5094050;28;19991;-76
2023/06/05 05:18:03;;;;;;;;;;;;;;;19.41;54.31;100068.66;5094097;28;20305;-77
2023/06/05 05:20:29;;;;;;;;;;;;;;;19.43;54.26;100065.75;5094267;28;19956;-76
2023/06/05 05:22:55;;;;;;;;;;;;;;;19.47;54.50;100067.78;5094426;28;19916;-76
2023/06/05 05:25:21;;;;;;;;;;;;;;;19.54;54.55;100065.88;5093005;28;20501;-76
2023/06/05 05:27:46;;;;;;;;;;;;;;;19.63;54.59;100074.41;5093775;28;19923;-77
2023/06/05 05:30:12;;;;;;;;;;;;;;;19.66;53.89;100074.78;5092432;28;19912;-76
2023/06/05 05:32:37;;;;;;;;;;;;;;;19.66;54.02;100080.16;5097305;27;20327;-76
2023/06/05 05:35:02;;;;;;;;;;;;;;;19.64;54.04;100076.06;5093648;28;19912;-76
2023/06/05 05:37:28;;;;;;;;;;;;;;;19.63;54.08;100080.59;5093599;28;19964;-77
2023/06/05 05:39:54;;;;;;;;;;;;;;;19.65;54.15;100075.84;5101136;27;19915;-76
2023/06/05 05:42:19;;;;;;;;;;;;;;;19.67;54.22;100071.06;5113726;28;19908;-76
2023/06/05 05:44:44;;;;;;;;;;;;;;;19.72;53.88;100070.41;5113816;28;20148;-76
2023/06/05 05:47:10;;;;;;;;;;;;;;;19.73;54.39;100066.69;5114015;28;20407;-76
2023/06/05 05:49:35;;;;;;;;;;;;;;;19.76;54.31;100074.25;5113835;28;19911;-77
2023/06/05 05:52:01;;;;;;;;;;;;;;;19.79;54.14;100068.47;5113603;28;19927;-76
2023/06/05 05:54:27;;;;;;;;;;;;;;;19.88;54.09;100067.09;5113225;28;20000;-76
2023/06/05 05:56:52;;;;;;;;;;;;;;;19.94;54.13;100079.59;5113256;28;19918;-76
2023/06/05 05:59:18;;;;;;;;;;;;;;;19.96;54.21;100072.16;5113390;28;19912;-77
2023/06/05 06:01:43;;;;;;;;;;;;;;;20.02;53.96;100080.31;5113438;28;19911;-76
2023/06/05 06:04:08;;;;;;;;;;;;;;;20.04;54.23;100075.56;5113117;28;19916;-76
2023/06/05 06:06:34;;;;;;;;;;;;;;;20.13;54.03;100061.63;5113136;28;19912;-78
2023/06/05 06:09:00;;;;;;;;;;;;;;;20.18;53.99;100069.00;5122511;27;20077;-77
2023/06/05 06:11:26;;;;;;;;;;;;;;;20.24;53.63;100063.53;5113609;27;19963;-76
2023/06/05 06:13:51;;;;;;;;;;;;;;;20.32;53.59;100067.75;5112869;28;19912;-76
2023/06/05 06:16:17;;;;;;;;;;;;;;;20.33;53.63;100064.03;5112763;28;19991;-76
2023/06/05 06:18:43;;;;;;;;;;;;;;;20.35;53.86;100053.06;5112824;28;19964;-76
2023/06/05 06:21:08;;;;;;;;;;;;;;;20.40;53.90;100059.41;5105460;27;19962;-76
2023/06/05 06:23:33;;;;;;;;;;;;;;;20.47;54.03;100068.19;5107793;27;20439;-77
2023/06/05 06:25:59;;;;;;;;;;;;;;;20.56;53.41;100065.97;5121893;27;20014;-76
2023/06/05 06:28:25;;;;;;;;;;;;;;;20.58;53.93;100059.34;5120854;27;19924;-76
2023/06/05 06:30:50;;;;;;;;;;;;;;;20.68;53.84;100061.44;5125139;27;19922;-76
2023/06/05 06:33:16;;;;;;;;;;;;;;;20.75;53.78;100058.66;5129918;27;19998;-77
2023/06/05 06:35:41;;;;;;;;;;;;;;;20.81;53.63;100055.91;5130923;27;19915;-76
2023/06/05 06:38:06;;;;;;;;;;;;;;;20.89;53.40;100063.59;5112500;27;19955;-77
2023/06/05 06:40:32;;;;;;;;;;;;;;;20.95;53.25;100061.84;5114546;27;20000;-76
2023/06/05 06:42:57;;;;;;;;;;;;;;;21.01;53.10;100066.28;5111171;28;19965;-77
2023/06/05 06:45:22;;;;;;;;;;;;;;;20.99;53.27;100070.25;5112921;28;19912;-77
2023/06/05 06:47:47;;;;;;;;;;;;;;;21.03;53.45;100068.75;5112254;28;19912;-77
2023/06/05 06:50:13;;;;;;;;;;;;;;;21.07;53.19;100073.41;5115718;27;19915;-75
2023/06/05 06:52:39;;;;;;;;;;;;;;;21.09;53.67;100075.88;5110069;27;20003;-76
2023/06/05 06:55:04;;;;;;;;;;;;;;;21.15;53.69;100072.25;5109290;27;19919;-77
2023/06/05 06:57:30;;;;;;;;;;;;;;;21.18;53.42;100069.09;5112482;27;19916;-75
2023/06/05 06:59:55;;;;;;;;;;;;;;;21.24;53.58;100068.19;5112649;27;19962;-77
2023/06/05 07:02:22;;;;;;;;;;;;;;;21.28;53.32;100071.22;5111984;28;19918;-77
2023/06/05 07:04:48;;;;;;;;;;;;;;;21.31;53.20;100065.38;5110149;27;19934;-76
2023/06/05 07:07:14;;;;;;;;;;;;;;;21.29;54.11;100062.09;5111219;28;20388;-75
2023/06/05 07:09:44;;;;;;;;;;;;;;;21.34;53.82;100054.97;5112206;28;19915;-75
2023/06/05 07:12:10;;;;;;;;;;;;;;;21.40;53.65;100053.22;5110959;28;20396;-75
2023/06/05 07:14:54;;;;;;;;;;;;;;;21.47;53.54;100052.03;5111985;28;20333;-75
2023/06/05 07:17:20;;;;;;;;;;;;;;;21.60;53.88;100058.22;5106623;28;19979;-76
2023/06/05 07:19:45;;;;;;;;;;;;;;;21.69;53.55;100059.47;5111600;28;19934;-75
2023/06/05 07:22:11;;;;;;;;;;;;;;;21.68;53.32;100061.34;5113537;28;19916;-75
2023/06/05 07:24:38;;;;;;;;;;;;;;;21.70;53.61;100061.94;5111772;28;19922;-77
2023/06/05 07:27:04;;;;;;;;;;;;;;;21.73;53.30;100061.47;5112669;28;19972;-78
2023/06/05 07:29:30;;;;;;;;;;;;;;;21.77;53.12;100064.47;5108336;28;19923;-77
2023/06/05 07:31:55;;;;;;;;;;;;;;;21.82;52.75;100060.03;5111944;28;19916;-77
2023/06/05 07:34:21;;;;;;;;;;;;;;;21.87;52.92;100065.50;5109451;28;19931;-75
2023/06/05 07:36:48;;;;;;;;;;;;;;;21.94;53.07;100062.66;5108312;28;20317;-76
2023/06/05 07:39:14;;;;;;;;;;;;;;;22.04;52.61;100062.06;5111787;28;19943;-76
2023/06/05 07:41:42;;;;;;;;;;;;;;;22.11;52.40;100065.44;5098944;28;20407;-74
2023/06/05 07:44:08;;;;;;;;;;;;;;;22.15;52.18;100056.66;5099400;28;20308;-77
2023/06/05 07:46:33;;;;;;;;;;;;;;;22.29;52.24;100061.72;5099093;28;19980;-78
2023/06/05 07:48:59;;;;;;;;;;;;;;;22.40;51.70;100056.31;5106039;28;20320;-77
2023/06/05 07:51:25;;;;;;;;;;;;;;;22.49;51.85;100065.63;5110755;27;20437;-78
2023/06/05 07:53:50;;;;;;;;;;;;;;;22.57;51.44;100056.31;5098625;27;20369;-77
2023/06/05 07:56:16;;;;;;;;;;;;;;;22.68;50.78;100054.59;5118334;27;20015;-76
2023/06/05 07:58:42;;;;;;;;;;;;;;;22.74;51.17;100062.53;5117393;27;19916;-77
2023/06/05 08:01:07;;;;;;;;;;;;;;;22.73;51.15;100060.88;5096719;27;19954;-75
2023/06/05 08:03:33;;;;;;;;;;;;;;;22.78;51.11;100060.97;5117632;27;19969;-77
2023/06/05 08:05:58;;;;;;;;;;;;;;;22.86;50.97;100056.28;5116951;27;19940;-75
2023/06/05 08:08:24;;;;;;;;;;;;;;;22.93;50.59;100049.66;5114431;28;20384;-77
2023/06/05 08:10:49;;;;;;;;;;;;;;;22.99;50.41;100050.53;5115573;28;19911;-78
2023/06/05 08:13:14;;;;;;;;;;;;;;;23.03;50.42;100051.69;5111425;27;19929;-77
2023/06/05 08:15:40;;;;;;;;;;;;;;;23.06;50.05;100049.34;5117515;27;19916;-74
2023/06/05 08:18:05;;;;;;;;;;;;;;;23.17;50.12;100044.09;5099769;27;20011;-76
2023/06/05 08:20:30;;;;;;;;;;;;;;;23.22;50.24;100044.97;5117913;27;20306;-74
2023/06/05 08:22:58;;;;;;;;;;;;;;;23.28;50.11;100046.66;5117421;27;19916;-76
2023/06/05 08:25:24;;;;;;;;;;;;;;;23.38;50.17;100048.69;5126165;27;19994;-76
2023/06/05 08:27:49;;;;;;;;;;;;;;;23.45;49.60;100046.63;5121341;27;19962;-77
2023/06/05 08:30:15;;;;;;;;;;;;;;;23.63;49.70;100042.84;5098275;28;19986;-77
2023/06/05 08:32:41;;;;;;;;;;;;;;;23.73;48.40;100038.38;5094654;28;19938;-77
2023/06/05 08:35:06;;;;;;;;;;;;;;;23.83;48.01;100037.69;5107245;27;19994;-77
2023/06/05 08:37:31;;;;;;;;;;;;;;;23.95;47.24;100043.75;5114937;27;20316;-76
2023/06/05 08:39:59;;;;;;;;;;;;;;;24.12;47.35;100037.47;5094459;28;19912;-76
2023/06/05 08:42:28;;;;;;;;;;;;;;;24.15;46.54;100032.38;5097705;27;21684;-76
2023/06/05 08:44:53;;;;;;;;;;;;;;;24.25;47.30;100034.34;5112127;27;20376;-76
2023/06/05 08:47:21;;;;;;;;;;;;;;;24.32;46.91;100037.69;5106241;27;20010;-76
2023/06/05 08:49:47;;;;;;;;;;;;;;;24.46;47.10;100038.88;5117916;27;19919;-77
2023/06/05 08:52:14;;;;;;;;;;;;;;;24.36;46.23;100028.00;5114630;28;19915;-76
2023/06/05 08:54:39;;;;;;;;;;;;;;;24.36;47.41;100031.50;5106033;27;19916;-76
2023/06/05 08:57:06;;;;;;;;;;;;;;;24.44;47.33;100027.53;5102890;27;20286;-77
2023/06/05 08:59:32;;;;;;;;;;;;;;;24.65;46.84;100042.03;5108565;27;19916;-76
2023/06/05 09:01:57;;;;;;;;;;;;;;;24.77;45.26;100039.16;5111835;27;19922;-77
2023/06/05 09:04:24;;;;;;;;;;;;;;;24.91;45.60;100034.94;5116287;27;20292;-77
2023/06/05 09:06:52;;;;;;;;;;;;;;;25.13;45.48;100035.63;5118955;27;19962;-77
2023/06/05 09:09:18;;;;;;;;;;;;;;;25.32;45.03;100028.75;5107175;27;19931;-75
2023/06/05 09:11:43;;;;;;;;;;;;;;;25.45;45.12;100027.44;5106629;28;20335;-75
2023/06/05 09:14:08;;;;;;;;;;;;;;;25.54;44.29;100033.97;5098843;27;19920;-74
2023/06/05 09:16:42;;;;;;;;;;;;;;;25.72;44.14;100035.41;5114178;28;19912;-76
2023/06/05 09:19:07;;;;;;;;;;;;;;;25.85;43.46;100034.91;5131269;27;19916;-77
2023/06/05 09:21:33;;;;;;;;;;;;;;;25.86;43.35;100030.31;5094017;28;19919;-77
2023/06/05 09:24:15;;;;;;;;;;;;;;;26.05;43.66;100031.47;5109425;27;19915;-78
2023/06/05 09:26:50;;;;;;;;;;;;;;;26.29;42.62;100029.88;5127457;27;19938;-77
2023/06/05 09:29:21;;;;;;;;;;;;;;;26.55;43.21;100030.72;5118695;27;19993;-77
2023/06/05 09:31:48;;;;;;;;;;;;;;;26.77;42.52;100037.78;5115314;27;19916;-78
2023/06/05 09:34:28;;;;;;;;;;;;;;;26.98;40.14;100036.69;5116873;27;19924;-76
2023/06/05 09:36:57;;;;;;;;;;;;;;;27.14;40.81;100030.16;5115575;27;19923;-77
2023/06/05 09:39:24;;;;;;;;;;;;;;;27.36;40.29;100026.28;5113542;27;19923;-78
2023/06/05 09:41:51;;;;;;;;;;;;;;;27.42;39.68;100020.56;5112823;28;20007;-77
2023/06/05 09:44:16;;;;;;;;;;;;;;;27.46;39.93;100023.53;5104332;27;20366;-76
2023/06/05 09:46:53;;;;;;;;;;;;;;;27.65;38.12;100027.28;5117889;27;20002;-78
2023/06/05 09:49:19;;;;;;;;;;;;;;;27.72;40.49;100016.94;5128279;27;19923;-77
2023/06/05 09:51:46;;;;;;;;;;;;;;;27.84;38.37;100003.84;5117287;27;19920;-77
2023/06/05 09:54:12;;;;;;;;;;;;;;;27.98;39.93;100008.66;5118637;27;19920;-77
2023/06/05 09:56:39;;;;;;;;;;;;;;;28.14;37.49;100004.75;5109351;27;19965;-77
2023/06/05 09:59:05;;;;;;;;;;;;;;;28.27;38.17;100004.16;5104458;27;20473;-77
2023/06/05 10:01:33;;;;;;;;;;;;;;;28.44;39.91;99996.41;5104209;27;19916;-78
2023/06/05 10:03:58;;;;;;;;;;;;;;;28.64;38.28;99998.13;5106819;27;20361;-77
2023/06/05 10:06:26;;;;;;;;;;;;;;;28.78;37.40;99993.63;5101031;27;19972;-77
2023/06/05 10:08:52;;;;;;;;;;;;;;;28.97;37.71;99993.75;5113469;27;19916;-76
2023/06/05 10:11:19;;;;;;;;;;;;;;;29.17;36.38;99998.16;5111922;27;21648;-78
2023/06/05 10:13:45;;;;;;;;;;;;;;;29.33;35.99;99991.44;5093182;28;19958;-76
2023/06/05 10:16:10;;;;;;;;;;;;;;;29.53;37.13;99997.75;5093753;28;20321;-77
2023/06/05 10:18:36;;;;;;;;;;;;;;;29.72;36.57;99983.06;5101323;28;19915;-77
2023/06/05 10:21:01;;;;;;;;;;;;;;;29.78;36.33;99983.00;5110524;27;20407;-75
2023/06/05 10:23:27;;;;;;;;;;;;;;;29.76;37.89;99980.59;5112483;27;19958;-76
2023/06/05 10:25:53;;;;;;;;;;;;;;;29.77;37.67;99978.66;5128398;28;19912;-75
2023/06/05 10:28:39;;;;;;;;;;;;;;;29.81;35.28;99974.25;5122280;28;19920;-75
2023/06/05 10:31:19;;;;;;;;;;;;;;;29.98;35.70;99969.91;5115783;27;20437;-75
2023/06/05 10:34:03;;;;;;;;;;;;;;;30.14;34.54;99969.69;5114005;27;19923;-78
2023/06/05 10:36:40;;;;;;;;;;;;;;;30.30;34.49;99971.06;5111705;28;19916;-77
2023/06/05 10:39:14;;;;;;;;;;;;;;;30.26;34.25;99987.19;5123414;27;19916;-76
2023/06/05 10:41:40;;;;;;;;;;;;;;;30.35;33.81;99973.69;5108862;27;19915;-76
2023/06/05 10:44:05;;;;;;;;;;;;;;;30.53;32.05;99970.13;5100766;27;20415;-75
2023/06/05 10:49:22;;;;;;;;;;;;;;;30.92;32.40;99966.16;5103523;27;19923;-75
2023/06/05 10:51:50;;;;;;;;;;;;;;;30.95;30.23;99966.38;5099445;27;19916;-77
2023/06/05 10:54:22;;;;;;;;;;;;;;;30.87;33.95;99969.00;5111926;27;19941;-77
2023/06/05 10:57:02;;;;;;;;;;;;;;;30.75;30.58;99972.22;5108293;27;19962;-77
2023/06/05 10:59:29;;;;;;;;;;;;;;;30.82;32.73;99966.38;5097918;27;19916;-77
2023/06/05 11:02:16;;;;;;;;;;;;;;;30.89;27.94;99970.31;5109499;27;19920;-77
2023/06/05 11:04:42;;;;;;;;;;;;;;;30.90;32.18;99979.28;5110780;28;19972;-75
2023/06/05 11:07:17;;;;;;;;;;;;;;;31.10;28.58;99961.72;5113259;27;19919;-76
2023/06/05 11:10:05;;;;;;;;;;;;;;;31.12;30.13;99962.22;5115613;27;19923;-76
2023/06/05 11:12:42;;;;;;;;;;;;;;;31.25;31.46;99953.28;5127596;27;19926;-78
2023/06/05 11:15:08;;;;;;;;;;;;;;;31.33;30.69;99960.75;5112210;28;19969;-76
2023/06/05 11:17:36;;;;;;;;;;;;;;;31.23;29.75;99958.25;5113263;28;19920;-77
2023/06/05 11:20:09;;;;;;;;;;;;;;;31.20;29.15;99948.72;5110532;28;19919;-77
2023/06/05 11:22:57;;;;;;;;;;;;;;;31.24;27.13;99952.47;5107423;28;20389;-75
2023/06/05 11:25:29;;;;;;;;;;;;;;;31.50;24.50;99950.00;5133034;27;19915;-76
2023/06/05 11:27:55;;;;;;;;;;;;;;;31.51;28.82;99959.00;5136785;27;19924;-78
2023/06/05 11:30:21;;;;;;;;;;;;;;;31.47;27.81;99969.72;5135392;27;19918;-76
2023/06/05 11:32:47;;;;;;;;;;;;;;;31.44;27.28;99959.41;5136647;27;20252;-78
2023/06/05 11:35:12;;;;;;;;;;;;;;;31.54;23.50;99937.34;5122765;27;19923;-78
2023/06/05 11:37:38;;;;;;;;;;;;;;;31.81;24.23;99941.13;5112574;27;20414;-76
2023/06/05 11:40:11;;;;;;;;;;;;;;;31.93;26.73;99946.84;5115185;28;19967;-77
2023/06/05 11:42:38;;;;;;;;;;;;;;;31.93;26.05;99952.31;5116987;27;19923;-78
2023/06/05 11:45:09;;;;;;;;;;;;;;;32.05;24.98;99949.88;5115843;28;19957;-77
2023/06/05 11:47:35;;;;;;;;;;;;;;;32.03;26.50;99946.63;5118267;27;19920;-79
2023/06/05 11:50:14;;;;;;;;;;;;;;;31.96;26.75;99948.16;5115637;27;19923;-78
2023/06/05 11:52:40;;;;;;;;;;;;;;;31.98;25.33;99935.84;5126714;27;19941;-76
2023/06/05 11:55:14;;;;;;;;;;;;;;;32.12;24.00;99947.50;5110573;28;19915;-76
2023/06/05 11:57:43;;;;;;;;;;;;;;;32.17;22.89;99941.09;5107703;27;19916;-78
2023/06/05 12:00:10;;;;;;;;;;;;;;;32.44;23.88;99937.44;5104604;28;19939;-76
2023/06/05 12:02:36;;;;;;;;;;;;;;;32.50;25.69;99938.91;5094980;28;19916;-78
2023/06/05 12:05:01;;;;;;;;;;;;;;;32.50;23.93;99938.91;5101792;28;19997;-76
2023/06/05 12:07:31;;;;;;;;;;;;;;;32.65;24.59;99941.22;5115372;28;19969;-76
2023/06/05 12:09:58;;;;;;;;;;;;;;;32.66;21.46;99939.31;5115272;28;19912;-77
2023/06/05 12:12:23;;;;;;;;;;;;;;;32.56;24.58;99929.44;5113906;28;19915;-76
2023/06/05 12:14:49;;;;;;;;;;;;;;;32.61;22.67;99929.31;5115239;28;19977;-76
2023/06/05 12:17:14;;;;;;;;;;;;;;;32.47;25.18;99926.69;5115416;28;19920;-78
2023/06/05 12:19:40;;;;;;;;;;;;;;;32.29;24.28;99937.81;5118925;27;19915;-78
2023/06/05 12:22:06;;;;;;;;;;;;;;;32.32;24.70;99931.75;5135731;27;20317;-79
2023/06/05 12:24:32;;;;;;;;;;;;;;;32.09;25.89;99928.19;5133630;27;19991;-78
2023/06/05 12:27:03;;;;;;;;;;;;;;;32.06;23.42;99928.81;5133574;27;19919;-78
2023/06/05 12:29:29;;;;;;;;;;;;;;;32.19;24.12;99914.28;5133089;27;20432;-77
2023/06/05 12:31:59;;;;;;;;;;;;;;;32.30;26.55;99921.13;5124526;27;19938;-78
2023/06/05 12:34:46;;;;;;;;;;;;;;;32.48;24.38;99917.34;5114062;27;19915;-78
2023/06/05 12:37:21;;;;;;;;;;;;;;;32.60;25.05;99916.75;5113042;27;20381;-78
2023/06/05 12:39:46;;;;;;;;;;;;;;;32.55;24.96;99912.25;5116302;27;19915;-76